sensor_id;sensor_type;location;lat;lon;timestamp;P1;durP1;ratioP1;P2;durP2;ratioP2
19877;SDS011;10101;52.204;9.910;2023-08-08T00:00:01;4.77;;;1.90;;
19877;SDS011;10101;52.204;9.910;2023-08-08T00:02:29;3.67;;;1.80;;
19877;SDS011;10101;52.204;9.910;2023-08-08T00:04:56;2.27;;;1.67;;
19877;SDS011;10101;52.204;9.910;2023-08-08T00:07:23;3.13;;;1.70;;
19877;SDS011;10101;52.204;9.910;2023-08-08T00:09:49;3.80;;;1.70;;
19877;SDS011;10101;52.204;9.910;2023-08-08T00:12:17;3.40;;;1.70;;
19877;SDS011;10101;52.204;9.910;2023-08-08T00:14:44;3.70;;;1.80;;
19877;SDS011;10101;52.204;9.910;2023-08-08T00:17:11;2.30;;;1.70;;
19877;SDS011;10101;52.204;9.910;2023-08-08T00:19:37;3.73;;;2.10;;
19877;SDS011;10101;52.204;9.910;2023-08-08T00:22:04;4.63;;;1.73;;
19877;SDS011;10101;52.204;9.910;2023-08-08T00:24:31;5.00;;;1.80;;
19877;SDS011;10101;52.204;9.910;2023-08-08T00:26:58;3.03;;;2.10;;
19877;SDS011;10101;52.204;9.910;2023-08-08T00:29:26;2.87;;;1.80;;
19877;SDS011;10101;52.204;9.910;2023-08-08T00:31:53;6.03;;;1.90;;
19877;SDS011;10101;52.204;9.910;2023-08-08T00:34:20;2.47;;;1.83;;
19877;SDS011;10101;52.204;9.910;2023-08-08T00:36:47;5.50;;;2.10;;
19877;SDS011;10101;52.204;9.910;2023-08-08T00:39:14;5.83;;;1.70;;
19877;SDS011;10101;52.204;9.910;2023-08-08T00:41:40;5.17;;;1.57;;
19877;SDS011;10101;52.204;9.910;2023-08-08T00:44:07;3.60;;;1.97;;
19877;SDS011;10101;52.204;9.910;2023-08-08T00:46:35;3.50;;;2.13;;
19877;SDS011;10101;52.204;9.910;2023-08-08T00:49:02;2.63;;;1.80;;
19877;SDS011;10101;52.204;9.910;2023-08-08T00:51:29;3.63;;;1.90;;
19877;SDS011;10101;52.204;9.910;2023-08-08T00:53:56;3.47;;;2.10;;
19877;SDS011;10101;52.204;9.910;2023-08-08T00:56:23;6.90;;;2.40;;
19877;SDS011;10101;52.204;9.910;2023-08-08T00:58:50;2.70;;;1.83;;
19877;SDS011;10101;52.204;9.910;2023-08-08T01:01:17;2.50;;;1.83;;
19877;SDS011;10101;52.204;9.910;2023-08-08T01:03:45;2.90;;;1.93;;
19877;SDS011;10101;52.204;9.910;2023-08-08T01:06:14;3.57;;;2.10;;
19877;SDS011;10101;52.204;9.910;2023-08-08T01:08:47;5.00;;;2.00;;
19877;SDS011;10101;52.204;9.910;2023-08-08T01:11:24;3.17;;;1.90;;
19877;SDS011;10101;52.204;9.910;2023-08-08T01:13:53;3.30;;;2.00;;
19877;SDS011;10101;52.204;9.910;2023-08-08T01:16:21;4.83;;;2.30;;
19877;SDS011;10101;52.204;9.910;2023-08-08T01:18:50;3.83;;;2.27;;
19877;SDS011;10101;52.204;9.910;2023-08-08T01:21:18;4.27;;;1.83;;
19877;SDS011;10101;52.204;9.910;2023-08-08T01:23:46;5.47;;;1.77;;
19877;SDS011;10101;52.204;9.910;2023-08-08T01:26:20;2.97;;;1.90;;
19877;SDS011;10101;52.204;9.910;2023-08-08T01:28:48;5.60;;;1.83;;
19877;SDS011;10101;52.204;9.910;2023-08-08T01:31:18;3.60;;;2.00;;
19877;SDS011;10101;52.204;9.910;2023-08-08T01:33:44;6.03;;;2.00;;
19877;SDS011;10101;52.204;9.910;2023-08-08T01:36:12;5.33;;;2.03;;
19877;SDS011;10101;52.204;9.910;2023-08-08T01:38:45;3.90;;;1.80;;
19877;SDS011;10101;52.204;9.910;2023-08-08T01:41:14;3.30;;;2.07;;
19877;SDS011;10101;52.204;9.910;2023-08-08T01:43:44;3.37;;;1.70;;
19877;SDS011;10101;52.204;9.910;2023-08-08T01:46:12;4.43;;;2.33;;
19877;SDS011;10101;52.204;9.910;2023-08-08T01:48:39;2.53;;;1.80;;
19877;SDS011;10101;52.204;9.910;2023-08-08T01:51:05;2.33;;;1.80;;
19877;SDS011;10101;52.204;9.910;2023-08-08T01:53:32;4.77;;;2.23;;
19877;SDS011;10101;52.204;9.910;2023-08-08T01:55:59;4.60;;;2.50;;
19877;SDS011;10101;52.204;9.910;2023-08-08T01:58:25;4.00;;;2.20;;
19877;SDS011;10101;52.204;9.910;2023-08-08T02:00:53;3.63;;;2.30;;
19877;SDS011;10101;52.204;9.910;2023-08-08T02:03:20;4.47;;;2.63;;
19877;SDS011;10101;52.204;9.910;2023-08-08T02:05:47;7.90;;;2.43;;
19877;SDS011;10101;52.204;9.910;2023-08-08T02:08:14;6.37;;;2.27;;
19877;SDS011;10101;52.204;9.910;2023-08-08T02:10:41;5.30;;;2.30;;
19877;SDS011;10101;52.204;9.910;2023-08-08T02:13:08;5.97;;;2.50;;
19877;SDS011;10101;52.204;9.910;2023-08-08T02:15:35;7.53;;;2.80;;
19877;SDS011;10101;52.204;9.910;2023-08-08T02:18:03;4.87;;;2.07;;
19877;SDS011;10101;52.204;9.910;2023-08-08T02:20:31;5.17;;;2.70;;
19877;SDS011;10101;52.204;9.910;2023-08-08T02:22:57;3.80;;;1.93;;
19877;SDS011;10101;52.204;9.910;2023-08-08T02:25:24;3.90;;;2.30;;
19877;SDS011;10101;52.204;9.910;2023-08-08T02:27:51;5.83;;;2.47;;
19877;SDS011;10101;52.204;9.910;2023-08-08T02:30:17;4.30;;;2.50;;
19877;SDS011;10101;52.204;9.910;2023-08-08T02:32:44;4.27;;;2.73;;
19877;SDS011;10101;52.204;9.910;2023-08-08T02:35:12;3.93;;;2.30;;
19877;SDS011;10101;52.204;9.910;2023-08-08T02:37:39;7.67;;;2.63;;
19877;SDS011;10101;52.204;9.910;2023-08-08T02:40:06;9.83;;;3.13;;
19877;SDS011;10101;52.204;9.910;2023-08-08T02:42:34;5.63;;;2.73;;
19877;SDS011;10101;52.204;9.910;2023-08-08T02:45:02;4.80;;;2.60;;
19877;SDS011;10101;52.204;9.910;2023-08-08T02:47:29;3.80;;;2.43;;
19877;SDS011;10101;52.204;9.910;2023-08-08T02:49:55;6.50;;;2.50;;
19877;SDS011;10101;52.204;9.910;2023-08-08T02:52:23;5.50;;;2.40;;
19877;SDS011;10101;52.204;9.910;2023-08-08T02:54:50;5.27;;;2.23;;
19877;SDS011;10101;52.204;9.910;2023-08-08T02:57:17;6.27;;;2.20;;
19877;SDS011;10101;52.204;9.910;2023-08-08T02:59:44;6.57;;;2.20;;
19877;SDS011;10101;52.204;9.910;2023-08-08T03:02:10;7.47;;;2.40;;
19877;SDS011;10101;52.204;9.910;2023-08-08T03:04:37;4.27;;;2.27;;
19877;SDS011;10101;52.204;9.910;2023-08-08T03:07:04;4.80;;;2.70;;
19877;SDS011;10101;52.204;9.910;2023-08-08T03:09:32;5.50;;;2.60;;
19877;SDS011;10101;52.204;9.910;2023-08-08T03:11:59;5.70;;;2.23;;
19877;SDS011;10101;52.204;9.910;2023-08-08T03:14:26;4.73;;;2.60;;
19877;SDS011;10101;52.204;9.910;2023-08-08T03:16:53;5.53;;;2.50;;
19877;SDS011;10101;52.204;9.910;2023-08-08T03:19:20;5.20;;;2.40;;
19877;SDS011;10101;52.204;9.910;2023-08-08T03:21:46;4.30;;;2.50;;
19877;SDS011;10101;52.204;9.910;2023-08-08T03:24:13;5.50;;;2.67;;
19877;SDS011;10101;52.204;9.910;2023-08-08T03:26:41;7.63;;;2.70;;
19877;SDS011;10101;52.204;9.910;2023-08-08T03:29:08;4.23;;;2.30;;
19877;SDS011;10101;52.204;9.910;2023-08-08T03:31:35;5.20;;;2.27;;
19877;SDS011;10101;52.204;9.910;2023-08-08T03:34:02;6.60;;;2.73;;
19877;SDS011;10101;52.204;9.910;2023-08-08T03:36:29;3.17;;;2.30;;
19877;SDS011;10101;52.204;9.910;2023-08-08T03:38:56;5.03;;;2.50;;
19877;SDS011;10101;52.204;9.910;2023-08-08T03:41:22;5.90;;;2.50;;
19877;SDS011;10101;52.204;9.910;2023-08-08T03:43:50;4.30;;;2.30;;
19877;SDS011;10101;52.204;9.910;2023-08-08T03:46:17;5.57;;;2.20;;
19877;SDS011;10101;52.204;9.910;2023-08-08T03:48:44;3.10;;;2.03;;
19877;SDS011;10101;52.204;9.910;2023-08-08T03:51:11;6.07;;;2.30;;
19877;SDS011;10101;52.204;9.910;2023-08-08T03:53:38;5.77;;;2.33;;
19877;SDS011;10101;52.204;9.910;2023-08-08T03:56:06;3.20;;;2.30;;
19877;SDS011;10101;52.204;9.910;2023-08-08T03:58:33;5.47;;;2.40;;
19877;SDS011;10101;52.204;9.910;2023-08-08T04:01:01;4.70;;;2.10;;
19877;SDS011;10101;52.204;9.910;2023-08-08T04:03:28;3.43;;;2.10;;
19877;SDS011;10101;52.204;9.910;2023-08-08T04:05:54;4.90;;;2.27;;
19877;SDS011;10101;52.204;9.910;2023-08-08T04:08:21;4.80;;;2.10;;
19877;SDS011;10101;52.204;9.910;2023-08-08T04:10:48;3.00;;;2.10;;
19877;SDS011;10101;52.204;9.910;2023-08-08T04:13:14;4.60;;;2.03;;
19877;SDS011;10101;52.204;9.910;2023-08-08T04:15:41;3.30;;;2.00;;
19877;SDS011;10101;52.204;9.910;2023-08-08T04:18:09;4.43;;;2.07;;
19877;SDS011;10101;52.204;9.910;2023-08-08T04:20:36;6.13;;;2.50;;
19877;SDS011;10101;52.204;9.910;2023-08-08T04:23:04;3.73;;;2.10;;
19877;SDS011;10101;52.204;9.910;2023-08-08T04:25:31;2.47;;;1.50;;
19877;SDS011;10101;52.204;9.910;2023-08-08T04:27:57;3.50;;;2.10;;
19877;SDS011;10101;52.204;9.910;2023-08-08T04:30:24;3.07;;;1.97;;
19877;SDS011;10101;52.204;9.910;2023-08-08T04:32:51;3.30;;;1.97;;
19877;SDS011;10101;52.204;9.910;2023-08-08T04:35:19;4.93;;;2.23;;
19877;SDS011;10101;52.204;9.910;2023-08-08T04:37:45;3.03;;;1.87;;
19877;SDS011;10101;52.204;9.910;2023-08-08T04:40:12;2.80;;;1.90;;
19877;SDS011;10101;52.204;9.910;2023-08-08T04:42:39;2.73;;;1.77;;
19877;SDS011;10101;52.204;9.910;2023-08-08T04:45:07;3.30;;;2.00;;
19877;SDS011;10101;52.204;9.910;2023-08-08T04:47:34;2.73;;;2.00;;
19877;SDS011;10101;52.204;9.910;2023-08-08T04:50:01;4.13;;;1.93;;
19877;SDS011;10101;52.204;9.910;2023-08-08T04:52:29;2.73;;;1.60;;
19877;SDS011;10101;52.204;9.910;2023-08-08T04:54:56;6.43;;;2.00;;
19877;SDS011;10101;52.204;9.910;2023-08-08T04:57:22;4.10;;;2.00;;
19877;SDS011;10101;52.204;9.910;2023-08-08T04:59:49;4.67;;;1.80;;
19877;SDS011;10101;52.204;9.910;2023-08-08T05:02:16;6.03;;;2.10;;
19877;SDS011;10101;52.204;9.910;2023-08-08T05:04:42;4.50;;;1.97;;
19877;SDS011;10101;52.204;9.910;2023-08-08T05:07:09;3.53;;;1.60;;
19877;SDS011;10101;52.204;9.910;2023-08-08T05:09:37;3.20;;;1.77;;
19877;SDS011;10101;52.204;9.910;2023-08-08T05:12:04;4.03;;;2.13;;
19877;SDS011;10101;52.204;9.910;2023-08-08T05:14:31;3.03;;;1.90;;
19877;SDS011;10101;52.204;9.910;2023-08-08T05:16:58;4.33;;;2.20;;
19877;SDS011;10101;52.204;9.910;2023-08-08T05:19:25;5.70;;;2.40;;
19877;SDS011;10101;52.204;9.910;2023-08-08T05:21:51;3.90;;;1.83;;
19877;SDS011;10101;52.204;9.910;2023-08-08T05:24:19;3.97;;;2.60;;
19877;SDS011;10101;52.204;9.910;2023-08-08T05:26:47;4.13;;;2.60;;
19877;SDS011;10101;52.204;9.910;2023-08-08T05:29:14;5.20;;;2.50;;
19877;SDS011;10101;52.204;9.910;2023-08-08T05:31:40;3.67;;;2.57;;
19877;SDS011;10101;52.204;9.910;2023-08-08T05:34:07;5.47;;;2.47;;
19877;SDS011;10101;52.204;9.910;2023-08-08T05:36:34;5.23;;;2.40;;
19877;SDS011;10101;52.204;9.910;2023-08-08T05:39:00;2.73;;;2.40;;
19877;SDS011;10101;52.204;9.910;2023-08-08T05:41:27;6.03;;;2.70;;
19877;SDS011;10101;52.204;9.910;2023-08-08T05:43:55;4.90;;;2.90;;
19877;SDS011;10101;52.204;9.910;2023-08-08T05:46:22;3.40;;;2.63;;
19877;SDS011;10101;52.204;9.910;2023-08-08T05:48:49;4.07;;;3.00;;
19877;SDS011;10101;52.204;9.910;2023-08-08T05:51:15;5.40;;;3.20;;
19877;SDS011;10101;52.204;9.910;2023-08-08T05:53:42;6.13;;;3.23;;
19877;SDS011;10101;52.204;9.910;2023-08-08T05:56:09;4.80;;;3.20;;
19877;SDS011;10101;52.204;9.910;2023-08-08T05:58:35;6.27;;;3.60;;
19877;SDS011;10101;52.204;9.910;2023-08-08T06:01:04;5.83;;;3.60;;
19877;SDS011;10101;52.204;9.910;2023-08-08T06:03:34;3.87;;;3.03;;
19877;SDS011;10101;52.204;9.910;2023-08-08T06:06:02;6.50;;;3.40;;
19877;SDS011;10101;52.204;9.910;2023-08-08T06:08:29;7.30;;;3.90;;
19877;SDS011;10101;52.204;9.910;2023-08-08T06:10:56;3.40;;;3.10;;
19877;SDS011;10101;52.204;9.910;2023-08-08T06:13:23;5.80;;;3.40;;
19877;SDS011;10101;52.204;9.910;2023-08-08T06:15:49;5.23;;;3.57;;
19877;SDS011;10101;52.204;9.910;2023-08-08T06:18:17;4.47;;;3.03;;
19877;SDS011;10101;52.204;9.910;2023-08-08T06:20:44;6.73;;;3.13;;
19877;SDS011;10101;52.204;9.910;2023-08-08T06:23:11;4.07;;;2.80;;
19877;SDS011;10101;52.204;9.910;2023-08-08T06:25:38;4.53;;;3.30;;
19877;SDS011;10101;52.204;9.910;2023-08-08T06:28:05;5.10;;;3.20;;
19877;SDS011;10101;52.204;9.910;2023-08-08T06:30:32;5.77;;;3.00;;
19877;SDS011;10101;52.204;9.910;2023-08-08T06:32:59;5.87;;;3.30;;
19877;SDS011;10101;52.204;9.910;2023-08-08T06:35:27;3.93;;;3.00;;
19877;SDS011;10101;52.204;9.910;2023-08-08T06:37:54;3.40;;;2.87;;
19877;SDS011;10101;52.204;9.910;2023-08-08T06:40:20;5.90;;;3.17;;
19877;SDS011;10101;52.204;9.910;2023-08-08T06:42:48;3.63;;;3.27;;
19877;SDS011;10101;52.204;9.910;2023-08-08T06:45:15;3.50;;;3.03;;
19877;SDS011;10101;52.204;9.910;2023-08-08T06:47:42;3.77;;;3.30;;
19877;SDS011;10101;52.204;9.910;2023-08-08T06:50:09;6.97;;;3.43;;
19877;SDS011;10101;52.204;9.910;2023-08-08T06:52:37;5.50;;;3.53;;
19877;SDS011;10101;52.204;9.910;2023-08-08T06:55:04;4.13;;;3.73;;
19877;SDS011;10101;52.204;9.910;2023-08-08T06:57:31;7.27;;;3.97;;
19877;SDS011;10101;52.204;9.910;2023-08-08T06:59:59;7.40;;;4.07;;
19877;SDS011;10101;52.204;9.910;2023-08-08T07:02:26;5.50;;;4.13;;
19877;SDS011;10101;52.204;9.910;2023-08-08T07:04:52;7.27;;;4.30;;
19877;SDS011;10101;52.204;9.910;2023-08-08T07:07:19;6.50;;;4.30;;
19877;SDS011;10101;52.204;9.910;2023-08-08T07:09:47;7.27;;;4.50;;
19877;SDS011;10101;52.204;9.910;2023-08-08T07:12:14;5.83;;;4.40;;
19877;SDS011;10101;52.204;9.910;2023-08-08T07:14:41;6.60;;;4.23;;
19877;SDS011;10101;52.204;9.910;2023-08-08T07:17:08;6.37;;;4.70;;
19877;SDS011;10101;52.204;9.910;2023-08-08T07:19:35;12.90;;;5.17;;
19877;SDS011;10101;52.204;9.910;2023-08-08T07:22:02;9.70;;;4.93;;
19877;SDS011;10101;52.204;9.910;2023-08-08T07:24:29;7.63;;;5.20;;
19877;SDS011;10101;52.204;9.910;2023-08-08T07:26:58;9.00;;;4.90;;
19877;SDS011;10101;52.204;9.910;2023-08-08T07:29:25;6.23;;;4.70;;
19877;SDS011;10101;52.204;9.910;2023-08-08T07:31:52;5.67;;;4.60;;
19877;SDS011;10101;52.204;9.910;2023-08-08T07:34:19;7.20;;;4.70;;
19877;SDS011;10101;52.204;9.910;2023-08-08T07:36:47;5.53;;;4.43;;
19877;SDS011;10101;52.204;9.910;2023-08-08T07:39:13;10.00;;;4.40;;
19877;SDS011;10101;52.204;9.910;2023-08-08T07:41:40;6.57;;;4.33;;
19877;SDS011;10101;52.204;9.910;2023-08-08T07:44:08;5.77;;;3.80;;
19877;SDS011;10101;52.204;9.910;2023-08-08T07:46:35;6.47;;;4.00;;
19877;SDS011;10101;52.204;9.910;2023-08-08T07:49:02;4.77;;;3.70;;
19877;SDS011;10101;52.204;9.910;2023-08-08T07:51:30;7.93;;;3.57;;
19877;SDS011;10101;52.204;9.910;2023-08-08T07:53:57;3.90;;;3.07;;
19877;SDS011;10101;52.204;9.910;2023-08-08T07:56:24;3.77;;;3.27;;
19877;SDS011;10101;52.204;9.910;2023-08-08T07:58:51;6.63;;;3.17;;
19877;SDS011;10101;52.204;9.910;2023-08-08T08:01:19;3.73;;;3.20;;
19877;SDS011;10101;52.204;9.910;2023-08-08T08:03:46;5.20;;;3.40;;
19877;SDS011;10101;52.204;9.910;2023-08-08T08:06:12;4.70;;;3.03;;
19877;SDS011;10101;52.204;9.910;2023-08-08T08:08:39;4.30;;;2.50;;
19877;SDS011;10101;52.204;9.910;2023-08-08T08:11:06;3.90;;;3.07;;
19877;SDS011;10101;52.204;9.910;2023-08-08T08:13:33;3.10;;;2.67;;
19877;SDS011;10101;52.204;9.910;2023-08-08T08:15:59;3.40;;;2.90;;
19877;SDS011;10101;52.204;9.910;2023-08-08T08:18:27;8.17;;;2.70;;
19877;SDS011;10101;52.204;9.910;2023-08-08T08:20:55;4.50;;;2.40;;
19877;SDS011;10101;52.204;9.910;2023-08-08T08:23:21;5.50;;;2.43;;
19877;SDS011;10101;52.204;9.910;2023-08-08T08:25:48;2.70;;;2.10;;
19877;SDS011;10101;52.204;9.910;2023-08-08T08:28:15;4.67;;;2.57;;
19877;SDS011;10101;52.204;9.910;2023-08-08T08:30:42;3.77;;;2.10;;
19877;SDS011;10101;52.204;9.910;2023-08-08T08:33:09;4.30;;;2.23;;
19877;SDS011;10101;52.204;9.910;2023-08-08T08:35:37;3.33;;;1.97;;
19877;SDS011;10101;52.204;9.910;2023-08-08T08:38:04;4.60;;;2.10;;
19877;SDS011;10101;52.204;9.910;2023-08-08T08:40:31;3.33;;;2.20;;
19877;SDS011;10101;52.204;9.910;2023-08-08T08:43:02;5.30;;;2.53;;
19877;SDS011;10101;52.204;9.910;2023-08-08T08:45:30;4.50;;;3.13;;
19877;SDS011;10101;52.204;9.910;2023-08-08T08:47:58;5.90;;;3.20;;
19877;SDS011;10101;52.204;9.910;2023-08-08T08:50:27;5.97;;;3.27;;
19877;SDS011;10101;52.204;9.910;2023-08-08T08:52:55;6.80;;;3.80;;
19877;SDS011;10101;52.204;9.910;2023-08-08T08:55:23;7.80;;;3.70;;
19877;SDS011;10101;52.204;9.910;2023-08-08T08:57:50;7.33;;;3.03;;
19877;SDS011;10101;52.204;9.910;2023-08-08T09:00:18;7.33;;;3.50;;
19877;SDS011;10101;52.204;9.910;2023-08-08T09:02:45;5.70;;;3.40;;
19877;SDS011;10101;52.204;9.910;2023-08-08T09:05:12;5.57;;;3.03;;
19877;SDS011;10101;52.204;9.910;2023-08-08T09:07:41;7.13;;;3.27;;
19877;SDS011;10101;52.204;9.910;2023-08-08T09:10:09;4.60;;;3.40;;
19877;SDS011;10101;52.204;9.910;2023-08-08T09:12:36;6.97;;;4.03;;
19877;SDS011;10101;52.204;9.910;2023-08-08T09:15:03;4.27;;;3.53;;
19877;SDS011;10101;52.204;9.910;2023-08-08T09:17:31;5.43;;;3.70;;
19877;SDS011;10101;52.204;9.910;2023-08-08T09:19:58;5.90;;;3.47;;
19877;SDS011;10101;52.204;9.910;2023-08-08T09:22:25;6.43;;;3.67;;
19877;SDS011;10101;52.204;9.910;2023-08-08T09:24:53;7.63;;;3.47;;
19877;SDS011;10101;52.204;9.910;2023-08-08T09:27:22;6.10;;;3.70;;
19877;SDS011;10101;52.204;9.910;2023-08-08T09:29:48;4.40;;;3.57;;
19877;SDS011;10101;52.204;9.910;2023-08-08T09:32:16;5.47;;;3.77;;
19877;SDS011;10101;52.204;9.910;2023-08-08T09:34:43;6.07;;;4.33;;
19877;SDS011;10101;52.204;9.910;2023-08-08T09:37:10;5.50;;;4.03;;
19877;SDS011;10101;52.204;9.910;2023-08-08T09:39:39;5.90;;;3.83;;
19877;SDS011;10101;52.204;9.910;2023-08-08T09:42:06;6.47;;;3.77;;
19877;SDS011;10101;52.204;9.910;2023-08-08T09:44:37;6.57;;;3.73;;
19877;SDS011;10101;52.204;9.910;2023-08-08T09:47:04;6.03;;;4.03;;
19877;SDS011;10101;52.204;9.910;2023-08-08T09:49:31;7.97;;;3.87;;
19877;SDS011;10101;52.204;9.910;2023-08-08T09:51:59;5.80;;;4.07;;
19877;SDS011;10101;52.204;9.910;2023-08-08T09:54:27;11.47;;;4.90;;
19877;SDS011;10101;52.204;9.910;2023-08-08T09:56:55;6.00;;;4.40;;
19877;SDS011;10101;52.204;9.910;2023-08-08T09:59:22;8.53;;;4.83;;
19877;SDS011;10101;52.204;9.910;2023-08-08T10:01:51;6.83;;;4.97;;
19877;SDS011;10101;52.204;9.910;2023-08-08T10:04:19;6.77;;;4.73;;
19877;SDS011;10101;52.204;9.910;2023-08-08T10:06:48;8.70;;;5.03;;
19877;SDS011;10101;52.204;9.910;2023-08-08T10:09:14;5.83;;;4.37;;
19877;SDS011;10101;52.204;9.910;2023-08-08T10:11:42;7.50;;;4.73;;
19877;SDS011;10101;52.204;9.910;2023-08-08T10:14:10;6.30;;;4.60;;
19877;SDS011;10101;52.204;9.910;2023-08-08T10:16:38;6.03;;;4.17;;
19877;SDS011;10101;52.204;9.910;2023-08-08T10:19:06;7.47;;;3.80;;
19877;SDS011;10101;52.204;9.910;2023-08-08T10:21:33;5.57;;;4.03;;
19877;SDS011;10101;52.204;9.910;2023-08-08T10:24:02;6.50;;;4.53;;
19877;SDS011;10101;52.204;9.910;2023-08-08T10:26:30;6.87;;;3.87;;
19877;SDS011;10101;52.204;9.910;2023-08-08T10:28:58;6.20;;;4.23;;
19877;SDS011;10101;52.204;9.910;2023-08-08T10:31:26;6.40;;;4.40;;
19877;SDS011;10101;52.204;9.910;2023-08-08T10:34:00;9.50;;;4.20;;
19877;SDS011;10101;52.204;9.910;2023-08-08T10:39:17;8.30;;;4.30;;
19877;SDS011;10101;52.204;9.910;2023-08-08T10:41:46;8.63;;;4.17;;
19877;SDS011;10101;52.204;9.910;2023-08-08T10:44:21;6.37;;;4.03;;
19877;SDS011;10101;52.204;9.910;2023-08-08T10:46:49;6.00;;;3.67;;
19877;SDS011;10101;52.204;9.910;2023-08-08T10:49:17;6.93;;;4.10;;
19877;SDS011;10101;52.204;9.910;2023-08-08T10:51:44;7.87;;;4.13;;
19877;SDS011;10101;52.204;9.910;2023-08-08T10:54:14;8.80;;;3.97;;
19877;SDS011;10101;52.204;9.910;2023-08-08T10:56:47;4.63;;;3.30;;
19877;SDS011;10101;52.204;9.910;2023-08-08T10:59:15;4.90;;;3.10;;
19877;SDS011;10101;52.204;9.910;2023-08-08T11:01:47;4.03;;;2.80;;
19877;SDS011;10101;52.204;9.910;2023-08-08T11:04:15;6.03;;;3.30;;
19877;SDS011;10101;52.204;9.910;2023-08-08T11:06:44;4.17;;;2.80;;
19877;SDS011;10101;52.204;9.910;2023-08-08T11:09:13;4.77;;;2.77;;
19877;SDS011;10101;52.204;9.910;2023-08-08T11:11:41;9.17;;;2.50;;
19877;SDS011;10101;52.204;9.910;2023-08-08T11:14:10;3.60;;;2.50;;
19877;SDS011;10101;52.204;9.910;2023-08-08T11:16:37;4.20;;;2.60;;
19877;SDS011;10101;52.204;9.910;2023-08-08T11:19:04;3.87;;;2.30;;
19877;SDS011;10101;52.204;9.910;2023-08-08T11:21:33;4.27;;;2.47;;
19877;SDS011;10101;52.204;9.910;2023-08-08T11:24:00;4.63;;;2.40;;
19877;SDS011;10101;52.204;9.910;2023-08-08T11:26:28;5.37;;;2.27;;
19877;SDS011;10101;52.204;9.910;2023-08-08T11:28:57;4.43;;;1.67;;
19877;SDS011;10101;52.204;9.910;2023-08-08T11:31:24;3.80;;;1.70;;
19877;SDS011;10101;52.204;9.910;2023-08-08T11:33:52;3.77;;;1.80;;
19877;SDS011;10101;52.204;9.910;2023-08-08T11:36:19;3.27;;;1.67;;
19877;SDS011;10101;52.204;9.910;2023-08-08T11:38:47;7.57;;;1.93;;
19877;SDS011;10101;52.204;9.910;2023-08-08T11:41:15;2.80;;;1.80;;
19877;SDS011;10101;52.204;9.910;2023-08-08T11:43:44;3.03;;;1.90;;
19877;SDS011;10101;52.204;9.910;2023-08-08T11:46:11;1.93;;;1.23;;
19877;SDS011;10101;52.204;9.910;2023-08-08T11:48:39;3.83;;;1.83;;
19877;SDS011;10101;52.204;9.910;2023-08-08T11:51:06;4.00;;;2.10;;
19877;SDS011;10101;52.204;9.910;2023-08-08T11:53:33;4.23;;;2.13;;
19877;SDS011;10101;52.204;9.910;2023-08-08T11:56:01;1.90;;;1.70;;
19877;SDS011;10101;52.204;9.910;2023-08-08T11:58:29;3.07;;;1.97;;
19877;SDS011;10101;52.204;9.910;2023-08-08T12:00:58;4.20;;;2.00;;
19877;SDS011;10101;52.204;9.910;2023-08-08T12:03:25;6.50;;;1.90;;
19877;SDS011;10101;52.204;9.910;2023-08-08T12:05:53;3.03;;;1.80;;
19877;SDS011;10101;52.204;9.910;2023-08-08T12:08:20;4.73;;;1.63;;
19877;SDS011;10101;52.204;9.910;2023-08-08T12:10:48;4.60;;;1.40;;
19877;SDS011;10101;52.204;9.910;2023-08-08T12:13:19;4.57;;;1.23;;
19877;SDS011;10101;52.204;9.910;2023-08-08T12:15:47;2.80;;;1.50;;
19877;SDS011;10101;52.204;9.910;2023-08-08T12:18:17;2.77;;;1.53;;
19877;SDS011;10101;52.204;9.910;2023-08-08T12:20:44;5.03;;;1.47;;
19877;SDS011;10101;52.204;9.910;2023-08-08T12:23:11;3.50;;;1.10;;
19877;SDS011;10101;52.204;9.910;2023-08-08T12:25:38;3.63;;;1.33;;
19877;SDS011;10101;52.204;9.910;2023-08-08T12:28:09;1.63;;;0.90;;
19877;SDS011;10101;52.204;9.910;2023-08-08T12:30:35;1.47;;;1.00;;
19877;SDS011;10101;52.204;9.910;2023-08-08T12:33:02;2.80;;;1.10;;
19877;SDS011;10101;52.204;9.910;2023-08-08T12:35:30;2.50;;;1.13;;
19877;SDS011;10101;52.204;9.910;2023-08-08T12:37:57;3.30;;;1.20;;
19877;SDS011;10101;52.204;9.910;2023-08-08T12:40:24;3.93;;;1.27;;
19877;SDS011;10101;52.204;9.910;2023-08-08T12:42:51;4.70;;;1.00;;
19877;SDS011;10101;52.204;9.910;2023-08-08T12:45:17;1.17;;;0.93;;
19877;SDS011;10101;52.204;9.910;2023-08-08T12:47:44;1.30;;;1.00;;
19877;SDS011;10101;52.204;9.910;2023-08-08T12:50:11;2.70;;;1.30;;
19877;SDS011;10101;52.204;9.910;2023-08-08T12:52:39;3.73;;;1.00;;
19877;SDS011;10101;52.204;9.910;2023-08-08T12:55:07;2.17;;;1.00;;
19877;SDS011;10101;52.204;9.910;2023-08-08T12:57:36;1.07;;;0.90;;
19877;SDS011;10101;52.204;9.910;2023-08-08T13:00:04;3.43;;;0.87;;
19877;SDS011;10101;52.204;9.910;2023-08-08T13:02:33;2.97;;;0.90;;
19877;SDS011;10101;52.204;9.910;2023-08-08T13:05:00;2.30;;;0.83;;
19877;SDS011;10101;52.204;9.910;2023-08-08T13:07:28;2.33;;;0.87;;
19877;SDS011;10101;52.204;9.910;2023-08-08T13:09:56;3.10;;;1.10;;
19877;SDS011;10101;52.204;9.910;2023-08-08T13:12:23;3.27;;;1.13;;
19877;SDS011;10101;52.204;9.910;2023-08-08T13:14:50;2.70;;;1.10;;
19877;SDS011;10101;52.204;9.910;2023-08-08T13:17:16;3.07;;;1.03;;
19877;SDS011;10101;52.204;9.910;2023-08-08T13:19:43;3.63;;;1.10;;
19877;SDS011;10101;52.204;9.910;2023-08-08T13:22:10;2.53;;;1.30;;
19877;SDS011;10101;52.204;9.910;2023-08-08T13:24:37;2.03;;;0.90;;
19877;SDS011;10101;52.204;9.910;2023-08-08T13:27:05;2.87;;;1.17;;
19877;SDS011;10101;52.204;9.910;2023-08-08T13:29:32;1.83;;;1.00;;
19877;SDS011;10101;52.204;9.910;2023-08-08T13:31:59;0.90;;;0.90;;
19877;SDS011;10101;52.204;9.910;2023-08-08T13:34:26;1.17;;;0.90;;
19877;SDS011;10101;52.204;9.910;2023-08-08T13:36:52;1.37;;;0.97;;
19877;SDS011;10101;52.204;9.910;2023-08-08T13:39:19;3.33;;;1.10;;
19877;SDS011;10101;52.204;9.910;2023-08-08T13:41:46;2.30;;;0.90;;
19877;SDS011;10101;52.204;9.910;2023-08-08T13:44:14;2.13;;;0.80;;
19877;SDS011;10101;52.204;9.910;2023-08-08T13:46:41;1.30;;;0.83;;
19877;SDS011;10101;52.204;9.910;2023-08-08T13:49:07;1.07;;;0.80;;
19877;SDS011;10101;52.204;9.910;2023-08-08T13:51:35;1.27;;;0.80;;
19877;SDS011;10101;52.204;9.910;2023-08-08T13:54:02;3.17;;;1.00;;
19877;SDS011;10101;52.204;9.910;2023-08-08T13:56:29;1.13;;;0.70;;
19877;SDS011;10101;52.204;9.910;2023-08-08T13:58:56;3.43;;;0.73;;
19877;SDS011;10101;52.204;9.910;2023-08-08T14:01:24;2.30;;;0.90;;
19877;SDS011;10101;52.204;9.910;2023-08-08T14:03:51;1.30;;;0.70;;
19877;SDS011;10101;52.204;9.910;2023-08-08T14:06:18;0.60;;;0.60;;
19877;SDS011;10101;52.204;9.910;2023-08-08T14:08:45;2.53;;;1.10;;
19877;SDS011;10101;52.204;9.910;2023-08-08T14:11:12;1.40;;;0.80;;
19877;SDS011;10101;52.204;9.910;2023-08-08T14:13:38;4.10;;;1.00;;
19877;SDS011;10101;52.204;9.910;2023-08-08T14:16:05;1.47;;;0.67;;
19877;SDS011;10101;52.204;9.910;2023-08-08T14:18:33;2.00;;;0.80;;
19877;SDS011;10101;52.204;9.910;2023-08-08T14:21:00;2.07;;;0.80;;
19877;SDS011;10101;52.204;9.910;2023-08-08T14:23:29;0.80;;;0.80;;
19877;SDS011;10101;52.204;9.910;2023-08-08T14:25:56;1.43;;;0.90;;
19877;SDS011;10101;52.204;9.910;2023-08-08T14:28:23;4.00;;;1.00;;
19877;SDS011;10101;52.204;9.910;2023-08-08T14:30:49;3.00;;;0.80;;
19877;SDS011;10101;52.204;9.910;2023-08-08T14:33:16;4.17;;;0.80;;
19877;SDS011;10101;52.204;9.910;2023-08-08T14:35:44;1.23;;;0.67;;
19877;SDS011;10101;52.204;9.910;2023-08-08T14:38:11;3.53;;;0.90;;
19877;SDS011;10101;52.204;9.910;2023-08-08T14:40:38;1.07;;;0.70;;
19877;SDS011;10101;52.204;9.910;2023-08-08T14:43:04;1.83;;;1.00;;
19877;SDS011;10101;52.204;9.910;2023-08-08T14:45:35;2.53;;;0.80;;
19877;SDS011;10101;52.204;9.910;2023-08-08T14:48:03;0.73;;;0.70;;
19877;SDS011;10101;52.204;9.910;2023-08-08T14:50:29;1.43;;;0.60;;